Time,TemperatureF,DewpointF,PressureIn,WindDirection,WindDirectionDegrees,WindSpeedMPH,WindSpeedGustMPH,Humidity,HourlyPrecipIn,Conditions,Clouds,dailyrainin,SoftwareType,DateUTC
2013-05-08 00:00:00,59.8,52.6,30.01,North,0,0.0,0.0,77,0.00,,,0.00,WUHU216HW,2013-05-08 05:00:00,
2013-05-08 00:05:00,59.8,52.6,30.01,North,0,0.0,0.0,77,0.00,,,0.00,WUHU216HW,2013-05-08 05:05:00,
2013-05-08 00:30:00,58.9,52.4,30.01,North,0,0.0,0.0,79,0.00,,,0.00,WUHU216HW,2013-05-08 05:30:00,
2013-05-08 00:35:00,58.9,52.4,30.01,North,0,0.0,0.0,79,0.00,,,0.00,WUHU216HW,2013-05-08 05:35:00,
2013-05-08 01:00:00,58.3,51.8,30.00,North,0,0.0,0.0,79,0.00,,,0.00,WUHU216HW,2013-05-08 06:00:00,
2013-05-08 01:05:00,58.3,51.8,30.00,North,0,0.0,0.0,79,0.00,,,0.00,WUHU216HW,2013-05-08 06:05:00,
2013-05-08 01:30:00,57.6,51.5,30.00,North,0,0.0,0.0,80,0.00,,,0.00,WUHU216HW,2013-05-08 06:30:00,
2013-05-08 01:35:00,57.6,51.5,30.00,North,0,0.0,0.0,80,0.00,,,0.00,WUHU216HW,2013-05-08 06:35:00,
2013-05-08 02:00:00,56.9,51.1,29.99,North,0,0.0,0.0,81,0.00,,,0.00,WUHU216HW,2013-05-08 07:00:00,
2013-05-08 02:05:00,56.9,51.1,29.99,North,0,0.0,0.0,81,0.00,,,0.00,WUHU216HW,2013-05-08 07:05:00,
2013-05-08 02:30:00,56.3,50.6,29.99,North,0,0.0,0.0,81,0.00,,,0.00,WUHU216HW,2013-05-08 07:30:00,
2013-05-08 02:35:00,56.3,50.6,29.99,North,0,0.0,0.0,81,0.00,,,0.00,WUHU216HW,2013-05-08 07:35:00,
2013-05-08 03:00:00,55.8,50.3,30.00,North,0,0.0,0.0,82,0.00,,,0.00,WUHU216HW,2013-05-08 08:00:00,
2013-05-08 03:05:00,55.8,50.3,30.00,North,0,0.0,0.0,82,0.00,,,0.00,WUHU216HW,2013-05-08 08:05:00,
2013-05-08 03:30:00,55.4,50.0,30.00,North,0,0.0,0.0,82,0.00,,,0.00,WUHU216HW,2013-05-08 08:30:00,
2013-05-08 03:35:00,55.4,50.0,30.00,North,0,0.0,0.0,82,0.00,,,0.00,WUHU216HW,2013-05-08 08:35:00,
2013-05-08 03:59:00,55.3,50.1,30.00,North,0,0.0,0.0,83,0.00,,,0.00,WUHU216HW,2013-05-08 08:59:00,
2013-05-08 04:00:00,55.3,50.1,30.00,North,0,0.0,0.0,83,0.00,,,0.00,WUHU216HW,2013-05-08 09:00:00,
2013-05-08 04:05:00,55.3,50.1,30.00,North,0,0.0,0.0,83,0.00,,,0.00,WUHU216HW,2013-05-08 09:05:00,
2013-05-08 04:30:00,55.1,50.3,30.00,North,0,0.0,0.0,84,0.00,,,0.00,WUHU216HW,2013-05-08 09:30:00,
2013-05-08 04:35:00,55.1,50.3,30.00,North,0,0.0,0.0,84,0.00,,,0.00,WUHU216HW,2013-05-08 09:35:00,
2013-05-08 04:59:00,55.1,50.3,30.01,North,0,0.0,0.0,84,0.00,,,0.00,WUHU216HW,2013-05-08 09:59:00,
2013-05-08 05:00:00,55.1,50.3,30.01,North,0,0.0,0.0,84,0.00,,,0.00,WUHU216HW,2013-05-08 10:00:00,
2013-05-08 05:05:00,55.1,50.3,30.01,North,0,0.0,0.0,84,0.00,,,0.00,WUHU216HW,2013-05-08 10:05:00,
2013-05-08 05:30:00,54.7,50.0,30.01,North,0,0.0,0.0,84,0.00,,,0.00,WUHU216HW,2013-05-08 10:30:00,
2013-05-08 05:35:00,54.7,50.0,30.01,North,0,0.0,0.0,84,0.00,,,0.00,WUHU216HW,2013-05-08 10:35:00,
2013-05-08 06:00:00,54.4,49.6,30.02,North,0,0.0,0.0,84,0.00,,,0.00,WUHU216HW,2013-05-08 11:00:00,
2013-05-08 06:05:00,54.4,49.6,30.02,North,0,0.0,0.0,84,0.00,,,0.00,WUHU216HW,2013-05-08 11:05:00,
2013-05-08 06:30:00,54.0,49.6,30.03,North,0,0.0,0.0,85,0.00,,,0.00,WUHU216HW,2013-05-08 11:30:00,
2013-05-08 06:35:00,54.0,49.6,30.03,North,0,0.0,0.0,85,0.00,,,0.00,WUHU216HW,2013-05-08 11:35:00,
2013-05-08 07:00:00,54.4,50.2,30.04,North,0,0.0,0.0,86,0.00,,,0.00,WUHU216HW,2013-05-08 12:00:00,
2013-05-08 07:05:00,54.4,50.2,30.04,North,0,0.0,0.0,86,0.00,,,0.00,WUHU216HW,2013-05-08 12:05:00,
2013-05-08 07:30:00,55.4,51.3,30.05,North,0,0.0,0.0,86,0.00,,,0.00,WUHU216HW,2013-05-08 12:30:00,
2013-05-08 07:35:00,55.4,51.3,30.05,North,0,0.0,0.0,86,0.00,,,0.00,WUHU216HW,2013-05-08 12:35:00,
2013-05-08 07:59:00,58.0,54.1,30.05,North,0,0.0,0.0,87,0.00,,,0.00,WUHU216HW,2013-05-08 12:59:00,
2013-05-08 08:00:00,58.0,54.1,30.05,North,0,0.0,0.0,87,0.00,,,0.00,WUHU216HW,2013-05-08 13:00:00,
2013-05-08 08:05:00,58.0,54.1,30.05,North,0,0.0,0.0,87,0.00,,,0.00,WUHU216HW,2013-05-08 13:05:00,
2013-05-08 08:30:00,62.5,58.2,30.05,North,0,0.0,0.0,86,0.00,,,0.00,WUHU216HW,2013-05-08 13:30:00,
2013-05-08 08:35:00,62.5,58.2,30.05,North,0,0.0,0.0,86,0.00,,,0.00,WUHU216HW,2013-05-08 13:35:00,
2013-05-08 08:59:00,67.3,60.3,30.05,North,0,0.0,0.0,78,0.00,,,0.00,WUHU216HW,2013-05-08 13:59:00,
2013-05-08 09:00:00,67.3,60.3,30.05,North,0,0.0,0.0,78,0.00,,,0.00,WUHU216HW,2013-05-08 14:00:00,
2013-05-08 09:05:00,67.3,60.3,30.05,North,0,0.0,0.0,78,0.00,,,0.00,WUHU216HW,2013-05-08 14:05:00,
2013-05-08 09:30:00,71.1,59.6,30.05,North,0,0.0,0.0,67,0.00,,,0.00,WUHU216HW,2013-05-08 14:30:00,
2013-05-08 09:35:00,71.1,59.6,30.05,North,0,0.0,0.0,67,0.00,,,0.00,WUHU216HW,2013-05-08 14:35:00,
2013-05-08 09:59:00,74.5,61.1,30.05,North,0,0.0,0.0,63,0.00,,,0.00,WUHU216HW,2013-05-08 14:59:00,
2013-05-08 10:00:00,74.5,61.1,30.05,North,0,0.0,0.0,63,0.00,,,0.00,WUHU216HW,2013-05-08 15:00:00,
2013-05-08 10:05:00,74.5,61.1,30.05,North,0,0.0,0.0,63,0.00,,,0.00,WUHU216HW,2013-05-08 15:05:00,
2013-05-08 10:30:00,77.4,59.0,30.05,North,0,0.0,0.0,53,0.00,,,0.00,WUHU216HW,2013-05-08 15:30:00,
2013-05-08 10:35:00,77.4,59.0,30.05,North,0,0.0,0.0,53,0.00,,,0.00,WUHU216HW,2013-05-08 15:35:00,
2013-05-08 10:59:00,79.7,57.1,30.05,North,0,0.0,0.0,46,0.00,,,0.00,WUHU216HW,2013-05-08 15:59:00,
2013-05-08 11:00:00,79.7,57.1,30.05,North,0,0.0,0.0,46,0.00,,,0.00,WUHU216HW,2013-05-08 16:00:00,
2013-05-08 11:05:00,79.7,57.1,30.05,North,0,0.0,0.0,46,0.00,,,0.00,WUHU216HW,2013-05-08 16:05:00,
2013-05-08 11:30:00,81.0,53.7,30.05,North,0,0.0,0.0,39,0.00,,,0.00,WUHU216HW,2013-05-08 16:30:00,
2013-05-08 11:35:00,81.0,53.7,30.05,North,0,0.0,0.0,39,0.00,,,0.00,WUHU216HW,2013-05-08 16:35:00,
2013-05-08 11:59:00,82.4,57.1,30.04,North,0,0.0,0.0,42,0.00,,,0.00,WUHU216HW,2013-05-08 16:59:00,
2013-05-08 12:00:00,82.4,57.1,30.04,North,0,0.0,0.0,42,0.00,,,0.00,WUHU216HW,2013-05-08 17:00:00,
2013-05-08 12:05:00,82.4,57.1,30.04,North,0,0.0,0.0,42,0.00,,,0.00,WUHU216HW,2013-05-08 17:05:00,
2013-05-08 12:30:00,82.4,56.4,30.03,North,0,0.0,0.0,41,0.00,,,0.00,WUHU216HW,2013-05-08 17:30:00,
2013-05-08 12:35:00,82.4,56.4,30.03,North,0,0.0,0.0,41,0.00,,,0.00,WUHU216HW,2013-05-08 17:35:00,
2013-05-08 12:59:00,84.1,56.4,30.03,North,0,0.0,0.0,39,0.00,,,0.00,WUHU216HW,2013-05-08 17:59:00,
2013-05-08 13:00:00,84.1,56.4,30.03,North,0,0.0,0.0,39,0.00,,,0.00,WUHU216HW,2013-05-08 18:00:00,
2013-05-08 13:05:00,84.1,56.4,30.03,North,0,0.0,0.0,39,0.00,,,0.00,WUHU216HW,2013-05-08 18:05:00,
2013-05-08 13:29:00,83.3,55.8,30.02,North,0,0.0,0.0,39,0.00,,,0.00,WUHU216HW,2013-05-08 18:29:00,
2013-05-08 13:30:00,83.3,55.8,30.02,North,0,0.0,0.0,39,0.00,,,0.00,WUHU216HW,2013-05-08 18:30:00,
2013-05-08 13:35:00,83.3,55.8,30.02,North,0,0.0,0.0,39,0.00,,,0.00,WUHU216HW,2013-05-08 18:35:00,
2013-05-08 13:59:00,82.3,54.1,30.02,North,0,0.0,0.0,38,0.00,,,0.00,WUHU216HW,2013-05-08 18:59:00,
2013-05-08 14:00:00,82.3,54.1,30.02,North,0,0.0,0.0,38,0.00,,,0.00,WUHU216HW,2013-05-08 19:00:00,
2013-05-08 14:05:00,82.3,54.1,30.02,North,0,0.0,0.0,38,0.00,,,0.00,WUHU216HW,2013-05-08 19:05:00,
2013-05-08 14:29:00,83.0,54.7,30.01,North,0,0.0,0.0,38,0.00,,,0.00,WUHU216HW,2013-05-08 19:29:00,
2013-05-08 14:30:00,83.0,54.7,30.01,North,0,0.0,0.0,38,0.00,,,0.00,WUHU216HW,2013-05-08 19:30:00,
2013-05-08 14:35:00,83.0,54.7,30.01,North,0,0.0,0.0,38,0.00,,,0.00,WUHU216HW,2013-05-08 19:35:00,
2013-05-08 14:59:00,82.8,54.5,30.00,North,0,0.0,0.0,38,0.00,,,0.00,WUHU216HW,2013-05-08 19:59:00,
2013-05-08 15:00:00,82.8,54.5,30.00,North,0,0.0,0.0,38,0.00,,,0.00,WUHU216HW,2013-05-08 20:00:00,
2013-05-08 15:05:00,82.8,54.5,30.00,North,0,0.0,0.0,38,0.00,,,0.00,WUHU216HW,2013-05-08 20:05:00,
2013-05-08 15:30:00,82.6,54.4,29.99,North,0,0.0,0.0,38,0.00,,,0.00,WUHU216HW,2013-05-08 20:30:00,
2013-05-08 15:35:00,82.6,54.4,29.99,North,0,0.0,0.0,38,0.00,,,0.00,WUHU216HW,2013-05-08 20:35:00,
2013-05-08 15:59:00,82.4,54.2,29.98,North,0,0.0,0.0,38,0.00,,,0.00,WUHU216HW,2013-05-08 20:59:00,
2013-05-08 16:00:00,82.4,54.2,29.98,North,0,0.0,0.0,38,0.00,,,0.00,WUHU216HW,2013-05-08 21:00:00,
2013-05-08 16:05:00,82.4,54.2,29.98,North,0,0.0,0.0,38,0.00,,,0.00,WUHU216HW,2013-05-08 21:05:00,
2013-05-08 16:30:00,82.6,53.6,29.97,North,0,0.0,0.0,37,0.00,,,0.00,WUHU216HW,2013-05-08 21:30:00,
2013-05-08 16:35:00,82.6,53.6,29.97,North,0,0.0,0.0,37,0.00,,,0.00,WUHU216HW,2013-05-08 21:35:00,
2013-05-08 16:59:00,79.9,53.6,29.98,North,0,0.0,0.0,40,0.00,,,0.00,WUHU216HW,2013-05-08 21:59:00,
2013-05-08 17:00:00,79.9,53.6,29.98,North,0,0.0,0.0,40,0.00,,,0.00,WUHU216HW,2013-05-08 22:00:00,
2013-05-08 17:05:00,79.9,53.6,29.98,North,0,0.0,0.0,40,0.00,,,0.00,WUHU216HW,2013-05-08 22:05:00,
2013-05-08 17:29:00,77.6,55.7,29.98,North,0,0.0,0.0,47,0.00,,,0.00,WUHU216HW,2013-05-08 22:29:00,
2013-05-08 17:30:00,77.6,55.7,29.98,North,0,0.0,0.0,47,0.00,,,0.00,WUHU216HW,2013-05-08 22:30:00,
2013-05-08 17:35:00,77.6,55.7,29.98,North,0,0.0,0.0,47,0.00,,,0.00,WUHU216HW,2013-05-08 22:35:00,
2013-05-08 17:59:00,75.8,55.4,29.98,North,0,0.0,0.0,49,0.00,,,0.00,WUHU216HW,2013-05-08 22:59:00,
2013-05-08 18:00:00,75.8,55.4,29.98,North,0,0.0,0.0,49,0.00,,,0.00,WUHU216HW,2013-05-08 23:00:00,
2013-05-08 18:05:00,75.8,55.4,29.98,North,0,0.0,0.0,49,0.00,,,0.00,WUHU216HW,2013-05-08 23:05:00,
2013-05-08 18:29:00,74.5,55.7,30.00,North,0,0.0,0.0,52,0.00,,,0.00,WUHU216HW,2013-05-08 23:29:00,
2013-05-08 18:30:00,74.5,55.7,30.00,North,0,0.0,0.0,52,0.00,,,0.00,WUHU216HW,2013-05-08 23:30:00,
2013-05-08 18:35:00,74.5,55.7,30.00,North,0,0.0,0.0,52,0.00,,,0.00,WUHU216HW,2013-05-08 23:35:00,
2013-05-08 18:59:00,73.4,56.2,30.01,North,0,0.0,0.0,55,0.00,,,0.00,WUHU216HW,2013-05-08 23:59:00,
2013-05-08 19:00:00,73.4,56.2,30.01,North,0,0.0,0.0,55,0.00,,,0.00,WUHU216HW,2013-05-09 00:00:00,
2013-05-08 19:05:00,73.4,56.2,30.01,North,0,0.0,0.0,55,0.00,,,0.00,WUHU216HW,2013-05-09 00:05:00,
2013-05-08 19:29:00,71.6,57.5,30.01,North,0,0.0,0.0,61,0.00,,,0.00,WUHU216HW,2013-05-09 00:29:00,
2013-05-08 19:30:00,71.6,57.5,30.01,North,0,0.0,0.0,61,0.00,,,0.00,WUHU216HW,2013-05-09 00:30:00,
2013-05-08 19:35:00,71.6,57.5,30.01,North,0,0.0,0.0,61,0.00,,,0.00,WUHU216HW,2013-05-09 00:35:00,
2013-05-08 19:59:00,70.0,58.2,30.00,North,0,0.0,0.0,66,0.00,,,0.00,WUHU216HW,2013-05-09 00:59:00,
2013-05-08 20:00:00,70.0,58.2,30.00,North,0,0.0,0.0,66,0.00,,,0.00,WUHU216HW,2013-05-09 01:00:00,
2013-05-08 20:05:00,70.0,58.2,30.00,North,0,0.0,0.0,66,0.00,,,0.00,WUHU216HW,2013-05-09 01:05:00,
2013-05-08 20:29:00,68.6,58.4,30.00,North,0,0.0,0.0,70,0.00,,,0.00,WUHU216HW,2013-05-09 01:29:00,
2013-05-08 20:30:00,68.6,58.4,30.00,North,0,0.0,0.0,70,0.00,,,0.00,WUHU216HW,2013-05-09 01:30:00,
2013-05-08 20:35:00,68.6,58.4,30.00,North,0,0.0,0.0,70,0.00,,,0.00,WUHU216HW,2013-05-09 01:35:00,
2013-05-08 21:00:00,67.9,58.1,30.00,North,0,0.0,0.0,71,0.00,,,0.00,WUHU216HW,2013-05-09 02:00:00,
2013-05-08 21:05:00,67.9,58.1,30.00,North,0,0.0,0.0,71,0.00,,,0.00,WUHU216HW,2013-05-09 02:05:00,
2013-05-08 21:30:00,67.3,58.4,30.00,North,0,0.0,0.0,73,0.00,,,0.00,WUHU216HW,2013-05-09 02:30:00,
2013-05-08 21:35:00,67.3,58.4,30.00,North,0,0.0,0.0,73,0.00,,,0.00,WUHU216HW,2013-05-09 02:35:00,
2013-05-08 22:00:00,66.6,58.1,30.00,North,0,0.0,0.0,74,0.00,,,0.00,WUHU216HW,2013-05-09 03:00:00,
2013-05-08 22:05:00,66.6,58.1,30.00,North,0,0.0,0.0,74,0.00,,,0.00,WUHU216HW,2013-05-09 03:05:00,
2013-05-08 22:30:00,65.7,57.9,30.00,North,0,0.0,0.0,76,0.00,,,0.00,WUHU216HW,2013-05-09 03:30:00,
2013-05-08 22:35:00,65.7,57.9,30.00,North,0,0.0,0.0,76,0.00,,,0.00,WUHU216HW,2013-05-09 03:35:00,
2013-05-08 23:00:00,65.2,57.8,30.00,North,0,0.0,0.0,77,0.00,,,0.00,WUHU216HW,2013-05-09 04:00:00,
2013-05-08 23:01:00,65.2,57.8,30.00,North,0,0.0,0.0,77,0.00,,,0.00,WUHU216HW,2013-05-09 04:01:00,
2013-05-08 23:06:00,65.2,57.8,30.00,North,0,0.0,0.0,77,0.00,,,0.00,WUHU216HW,2013-05-09 04:06:00,
2013-05-08 23:30:00,64.8,57.8,30.00,North,0,0.0,0.0,78,0.00,,,0.00,WUHU216HW,2013-05-09 04:30:00,
2013-05-08 23:35:00,64.8,57.8,30.00,North,0,0.0,0.0,78,0.00,,,0.00,WUHU216HW,2013-05-09 04:35:00,